sensor_id;sensor_type;location;lat;lon;timestamp;noise_LAeq;noise_LA_min;noise_LA_max;noise_LA01;noise_LA95
82254;Laerm;71856;39.574;2.640;2023-07-31T00:09:34;36;35;69;;
82254;Laerm;71856;39.574;2.640;2023-07-31T00:29:34;37;35;71;;
82254;Laerm;71856;39.574;2.640;2023-07-31T00:49:34;36;35;68;;
82254;Laerm;71856;39.574;2.640;2023-07-31T00:59:34;36;35;78;;
82254;Laerm;71856;39.574;2.640;2023-07-31T01:09:36;36;35;74;;
82254;Laerm;71856;39.574;2.640;2023-07-31T01:19:34;36;35;71;;
82254;Laerm;71856;39.574;2.640;2023-07-31T01:29:35;36;35;57;;
82254;Laerm;71856;39.574;2.640;2023-07-31T01:49:33;36;35;58;;
82254;Laerm;71856;39.574;2.640;2023-07-31T01:59:41;36;35;46;;
82254;Laerm;71856;39.574;2.640;2023-07-31T02:09:33;36;34;69;;
82254;Laerm;71856;39.574;2.640;2023-07-31T02:19:33;36;35;53;;
82254;Laerm;71856;39.574;2.640;2023-07-31T02:29:40;36;35;49;;
82254;Laerm;71856;39.574;2.640;2023-07-31T02:39:40;36;35;49;;
82254;Laerm;71856;39.574;2.640;2023-07-31T02:49:33;36;35;57;;
82254;Laerm;71856;39.574;2.640;2023-07-31T02:59:33;36;35;56;;
82254;Laerm;71856;39.574;2.640;2023-07-31T03:09:33;36;35;74;;
82254;Laerm;71856;39.574;2.640;2023-07-31T03:19:40;36;35;63;;
82254;Laerm;71856;39.574;2.640;2023-07-31T03:29:33;36;34;59;;
82254;Laerm;71856;39.574;2.640;2023-07-31T03:39:34;36;35;62;;
82254;Laerm;71856;39.574;2.640;2023-07-31T03:49:33;36;35;81;;
82254;Laerm;71856;39.574;2.640;2023-07-31T03:59:33;36;35;57;;
82254;Laerm;71856;39.574;2.640;2023-07-31T04:09:33;36;35;70;;
82254;Laerm;71856;39.574;2.640;2023-07-31T04:19:33;37;35;77;;
82254;Laerm;71856;39.574;2.640;2023-07-31T04:49:33;36;35;70;;
82254;Laerm;71856;39.574;2.640;2023-07-31T05:09:33;36;35;69;;
82254;Laerm;71856;39.574;2.640;2023-07-31T05:19:33;37;35;67;;
82254;Laerm;71856;39.574;2.640;2023-07-31T05:29:33;38;35;77;;
82254;Laerm;71856;39.574;2.640;2023-07-31T05:59:40;37;35;65;;
82254;Laerm;71856;39.574;2.640;2023-07-31T06:09:33;38;35;77;;
82254;Laerm;71856;39.574;2.640;2023-07-31T06:19:40;38;35;66;;
82254;Laerm;71856;39.574;2.640;2023-07-31T06:29:33;38;36;87;;
82254;Laerm;71856;39.574;2.640;2023-07-31T06:39:33;38;36;76;;
82254;Laerm;71856;39.574;2.640;2023-07-31T06:49:33;39;35;76;;
82254;Laerm;71856;39.574;2.640;2023-07-31T06:59:33;38;35;80;;
82254;Laerm;71856;39.574;2.640;2023-07-31T07:19:33;38;36;84;;
82254;Laerm;71856;39.574;2.640;2023-07-31T07:29:40;38;36;85;;
82254;Laerm;71856;39.574;2.640;2023-07-31T07:39:40;38;36;67;;
82254;Laerm;71856;39.574;2.640;2023-07-31T07:49:33;38;36;86;;
82254;Laerm;71856;39.574;2.640;2023-07-31T07:59:33;39;36;86;;
82254;Laerm;71856;39.574;2.640;2023-07-31T08:09:40;39;36;77;;
82254;Laerm;71856;39.574;2.640;2023-07-31T08:19:40;40;36;86;;
82254;Laerm;71856;39.574;2.640;2023-07-31T08:29:33;40;36;90;;
82254;Laerm;71856;39.574;2.640;2023-07-31T08:39:33;40;36;77;;
82254;Laerm;71856;39.574;2.640;2023-07-31T08:49:33;40;36;96;;
82254;Laerm;71856;39.574;2.640;2023-07-31T08:59:34;40;36;89;;
82254;Laerm;71856;39.574;2.640;2023-07-31T09:09:33;39;36;79;;
82254;Laerm;71856;39.574;2.640;2023-07-31T09:19:40;45;36;99;;
82254;Laerm;71856;39.574;2.640;2023-07-31T09:29:40;45;38;89;;
82254;Laerm;71856;39.574;2.640;2023-07-31T09:39:33;43;37;82;;
82254;Laerm;71856;39.574;2.640;2023-07-31T09:49:33;42;36;90;;
82254;Laerm;71856;39.574;2.640;2023-07-31T09:59:33;46;37;95;;
82254;Laerm;71856;39.574;2.640;2023-07-31T10:09:33;46;37;85;;
82254;Laerm;71856;39.574;2.640;2023-07-31T10:19:33;44;36;86;;
82254;Laerm;71856;39.574;2.640;2023-07-31T10:29:33;41;36;85;;
82254;Laerm;71856;39.574;2.640;2023-07-31T10:39:33;39;36;106;;
82254;Laerm;71856;39.574;2.640;2023-07-31T10:49:33;43;36;107;;
82254;Laerm;71856;39.574;2.640;2023-07-31T10:59:34;39;36;77;;
82254;Laerm;71856;39.574;2.640;2023-07-31T11:09:33;41;36;89;;
82254;Laerm;71856;39.574;2.640;2023-07-31T11:19:33;41;36;101;;
82254;Laerm;71856;39.574;2.640;2023-07-31T11:39:33;41;36;80;;
82254;Laerm;71856;39.574;2.640;2023-07-31T11:59:33;40;36;76;;
82254;Laerm;71856;39.574;2.640;2023-07-31T12:09:33;40;36;74;;
82254;Laerm;71856;39.574;2.640;2023-07-31T12:19:33;40;36;94;;
82254;Laerm;71856;39.574;2.640;2023-07-31T12:29:33;41;36;88;;
82254;Laerm;71856;39.574;2.640;2023-07-31T12:39:33;39;36;87;;
82254;Laerm;71856;39.574;2.640;2023-07-31T12:49:40;40;36;83;;
82254;Laerm;71856;39.574;2.640;2023-07-31T12:59:33;43;36;95;;
82254;Laerm;71856;39.574;2.640;2023-07-31T13:09:33;41;36;100;;
82254;Laerm;71856;39.574;2.640;2023-07-31T13:19:33;41;36;110;;
82254;Laerm;71856;39.574;2.640;2023-07-31T13:39:33;42;36;99;;
82254;Laerm;71856;39.574;2.640;2023-07-31T13:49:40;39;36;81;;
82254;Laerm;71856;39.574;2.640;2023-07-31T13:59:40;41;36;109;;
82254;Laerm;71856;39.574;2.640;2023-07-31T14:09:33;42;36;94;;
82254;Laerm;71856;39.574;2.640;2023-07-31T14:19:33;44;36;83;;
82254;Laerm;71856;39.574;2.640;2023-07-31T14:29:33;41;36;100;;
82254;Laerm;71856;39.574;2.640;2023-07-31T14:39:33;40;36;92;;
82254;Laerm;71856;39.574;2.640;2023-07-31T14:49:33;40;36;95;;
82254;Laerm;71856;39.574;2.640;2023-07-31T14:59:40;42;36;104;;
82254;Laerm;71856;39.574;2.640;2023-07-31T15:09:40;40;36;89;;
82254;Laerm;71856;39.574;2.640;2023-07-31T15:19:33;43;37;113;;
82254;Laerm;71856;39.574;2.640;2023-07-31T15:29:33;41;37;80;;
82254;Laerm;71856;39.574;2.640;2023-07-31T15:39:33;39;36;98;;
82254;Laerm;71856;39.574;2.640;2023-07-31T15:49:40;40;36;80;;
82254;Laerm;71856;39.574;2.640;2023-07-31T15:59:33;39;36;84;;
82254;Laerm;71856;39.574;2.640;2023-07-31T16:09:33;41;36;90;;
82254;Laerm;71856;39.574;2.640;2023-07-31T16:19:33;43;36;108;;
82254;Laerm;71856;39.574;2.640;2023-07-31T16:29:41;39;36;67;;
82254;Laerm;71856;39.574;2.640;2023-07-31T16:39:33;40;36;105;;
82254;Laerm;71856;39.574;2.640;2023-07-31T16:49:32;38;36;77;;
82254;Laerm;71856;39.574;2.640;2023-07-31T16:59:33;39;36;79;;
82254;Laerm;71856;39.574;2.640;2023-07-31T17:29:32;40;36;99;;
82254;Laerm;71856;39.574;2.640;2023-07-31T17:39:33;42;36;95;;
82254;Laerm;71856;39.574;2.640;2023-07-31T17:49:32;39;36;99;;
82254;Laerm;71856;39.574;2.640;2023-07-31T17:59:32;38;36;84;;
82254;Laerm;71856;39.574;2.640;2023-07-31T18:09:32;39;36;85;;
82254;Laerm;71856;39.574;2.640;2023-07-31T18:19:39;41;36;98;;
82254;Laerm;71856;39.574;2.640;2023-07-31T18:29:33;39;36;81;;
82254;Laerm;71856;39.574;2.640;2023-07-31T18:39:39;39;36;78;;
82254;Laerm;71856;39.574;2.640;2023-07-31T18:49:32;40;36;87;;
82254;Laerm;71856;39.574;2.640;2023-07-31T18:59:39;42;36;104;;
82254;Laerm;71856;39.574;2.640;2023-07-31T19:09:33;39;36;76;;
82254;Laerm;71856;39.574;2.640;2023-07-31T19:19:32;40;36;110;;
82254;Laerm;71856;39.574;2.640;2023-07-31T19:29:32;39;36;73;;
82254;Laerm;71856;39.574;2.640;2023-07-31T19:39:32;41;36;93;;
82254;Laerm;71856;39.574;2.640;2023-07-31T20:09:32;38;36;83;;
82254;Laerm;71856;39.574;2.640;2023-07-31T20:19:32;38;36;79;;
82254;Laerm;71856;39.574;2.640;2023-07-31T20:29:32;39;36;65;;
82254;Laerm;71856;39.574;2.640;2023-07-31T20:39:32;38;36;73;;
82254;Laerm;71856;39.574;2.640;2023-07-31T20:59:32;39;36;92;;
82254;Laerm;71856;39.574;2.640;2023-07-31T21:19:32;39;36;93;;
82254;Laerm;71856;39.574;2.640;2023-07-31T21:29:32;38;36;74;;
82254;Laerm;71856;39.574;2.640;2023-07-31T21:39:32;39;36;91;;
82254;Laerm;71856;39.574;2.640;2023-07-31T21:49:32;37;36;78;;
82254;Laerm;71856;39.574;2.640;2023-07-31T21:59:32;39;36;94;;
82254;Laerm;71856;39.574;2.640;2023-07-31T22:09:32;37;36;71;;
82254;Laerm;71856;39.574;2.640;2023-07-31T22:19:32;39;36;70;;
82254;Laerm;71856;39.574;2.640;2023-07-31T22:29:32;37;35;85;;
82254;Laerm;71856;39.574;2.640;2023-07-31T22:39:32;37;35;68;;
82254;Laerm;71856;39.574;2.640;2023-07-31T22:49:32;37;35;69;;
82254;Laerm;71856;39.574;2.640;2023-07-31T22:59:32;37;35;80;;
82254;Laerm;71856;39.574;2.640;2023-07-31T23:09:32;36;35;77;;
82254;Laerm;71856;39.574;2.640;2023-07-31T23:19:32;36;35;77;;
82254;Laerm;71856;39.574;2.640;2023-07-31T23:29:32;37;35;93;;
82254;Laerm;71856;39.574;2.640;2023-07-31T23:39:32;36;35;67;;
82254;Laerm;71856;39.574;2.640;2023-07-31T23:49:32;36;35;69;;
82254;Laerm;71856;39.574;2.640;2023-07-31T23:59:32;36;35;76;;
